sensor_id;sensor_type;location;lat;lon;timestamp;pressure;altitude;pressure_sealevel;temperature;humidity
25947;BME280;13745;51.470;9.894;2023-02-13T00:00:24;101483.84;;;8.96;84.18
25947;BME280;13745;51.470;9.894;2023-02-13T00:03:09;101485.59;;;8.97;84.12
25947;BME280;13745;51.470;9.894;2023-02-13T00:05:55;101475.25;;;8.97;84.23
25947;BME280;13745;51.470;9.894;2023-02-13T00:08:41;101477.81;;;8.96;84.23
25947;BME280;13745;51.470;9.894;2023-02-13T00:11:26;101482.06;;;8.94;84.21
25947;BME280;13745;51.470;9.894;2023-02-13T00:14:11;101478.50;;;8.90;84.35
25947;BME280;13745;51.470;9.894;2023-02-13T00:16:56;101470.75;;;8.90;84.64
25947;BME280;13745;51.470;9.894;2023-02-13T00:19:41;101470.81;;;8.93;84.38
25947;BME280;13745;51.470;9.894;2023-02-13T00:22:28;101471.72;;;8.94;84.70
25947;BME280;13745;51.470;9.894;2023-02-13T00:25:13;101476.00;;;8.93;84.54
25947;BME280;13745;51.470;9.894;2023-02-13T00:27:58;101466.56;;;8.94;84.38
25947;BME280;13745;51.470;9.894;2023-02-13T00:30:44;101482.81;;;8.90;84.72
25947;BME280;13745;51.470;9.894;2023-02-13T00:33:30;101477.66;;;8.91;84.88
25947;BME280;13745;51.470;9.894;2023-02-13T00:36:17;101475.91;;;8.90;84.68
25947;BME280;13745;51.470;9.894;2023-02-13T00:39:03;101474.19;;;8.91;84.97
25947;BME280;13745;51.470;9.894;2023-02-13T00:41:49;101473.38;;;8.92;84.96
25947;BME280;13745;51.470;9.894;2023-02-13T00:44:34;101471.59;;;8.89;85.11
25947;BME280;13745;51.470;9.894;2023-02-13T00:47:19;101470.75;;;8.90;84.85
25947;BME280;13745;51.470;9.894;2023-02-13T00:50:05;101480.25;;;8.91;85.04
25947;BME280;13745;51.470;9.894;2023-02-13T00:52:50;101475.88;;;8.89;84.78
25947;BME280;13745;51.470;9.894;2023-02-13T00:55:38;101474.91;;;8.85;84.99
25947;BME280;13745;51.470;9.894;2023-02-13T00:58:26;101476.72;;;8.88;84.97
25947;BME280;13745;51.470;9.894;2023-02-13T01:01:11;101474.09;;;8.86;85.04
25947;BME280;13745;51.470;9.894;2023-02-13T01:03:56;101476.69;;;8.86;85.00
25947;BME280;13745;51.470;9.894;2023-02-13T01:06:41;101474.88;;;8.84;85.23
25947;BME280;13745;51.470;9.894;2023-02-13T01:09:26;101478.25;;;8.81;85.46
25947;BME280;13745;51.470;9.894;2023-02-13T01:12:13;101477.34;;;8.79;85.42
25947;BME280;13745;51.470;9.894;2023-02-13T01:14:59;101478.25;;;8.81;85.16
25947;BME280;13745;51.470;9.894;2023-02-13T01:17:44;101478.22;;;8.80;85.40
25947;BME280;13745;51.470;9.894;2023-02-13T01:20:30;101476.47;;;8.79;85.81
25947;BME280;13745;51.470;9.894;2023-02-13T01:23:15;101471.28;;;8.79;85.42
25947;BME280;13745;51.470;9.894;2023-02-13T01:26:02;101469.56;;;8.78;85.34
25947;BME280;13745;51.470;9.894;2023-02-13T01:28:51;101477.19;;;8.75;85.78
25947;BME280;13745;51.470;9.894;2023-02-13T01:31:36;101473.78;;;8.76;85.71
25947;BME280;13745;51.470;9.894;2023-02-13T01:34:21;101478.91;;;8.74;85.55
25947;BME280;13745;51.470;9.894;2023-02-13T01:37:06;101475.41;;;8.72;85.70
25947;BME280;13745;51.470;9.894;2023-02-13T01:39:51;101473.66;;;8.71;85.67
25947;BME280;13745;51.470;9.894;2023-02-13T01:42:37;101474.53;;;8.71;86.39
25947;BME280;13745;51.470;9.894;2023-02-13T01:45:25;101472.78;;;8.70;85.76
25947;BME280;13745;51.470;9.894;2023-02-13T01:48:14;101468.28;;;8.63;85.96
25947;BME280;13745;51.470;9.894;2023-02-13T01:51:03;101469.00;;;8.59;86.06
25947;BME280;13745;51.470;9.894;2023-02-13T01:53:54;101468.06;;;8.56;86.24
25947;BME280;13745;51.470;9.894;2023-02-13T01:56:43;101462.00;;;8.55;86.45
25947;BME280;13745;51.470;9.894;2023-02-13T01:59:32;101469.84;;;8.58;86.09
25947;BME280;13745;51.470;9.894;2023-02-13T02:02:20;101463.84;;;8.59;86.42
25947;BME280;13745;51.470;9.894;2023-02-13T02:05:07;101465.47;;;8.56;86.51
25947;BME280;13745;51.470;9.894;2023-02-13T02:07:53;101462.00;;;8.55;86.16
25947;BME280;13745;51.470;9.894;2023-02-13T02:10:40;101454.25;;;8.55;86.29
25947;BME280;13745;51.470;9.894;2023-02-13T02:13:26;101458.41;;;8.50;86.59
25947;BME280;13745;51.470;9.894;2023-02-13T02:16:11;101454.84;;;8.45;86.61
25947;BME280;13745;51.470;9.894;2023-02-13T02:19:00;101453.84;;;8.41;86.91
25947;BME280;13745;51.470;9.894;2023-02-13T02:25:28;101446.81;;;8.36;86.42
25947;BME280;13745;51.470;9.894;2023-02-13T02:28:45;101445.13;;;8.36;86.44
25947;BME280;13745;51.470;9.894;2023-02-13T02:32:07;101438.00;;;8.31;86.49
25947;BME280;13745;51.470;9.894;2023-02-13T02:35:05;101440.59;;;8.31;86.49
25947;BME280;13745;51.470;9.894;2023-02-13T02:38:16;101432.59;;;8.22;86.81
25947;BME280;13745;51.470;9.894;2023-02-13T02:41:12;101443.81;;;8.24;86.51
25947;BME280;13745;51.470;9.894;2023-02-13T02:44:30;101449.84;;;8.23;86.50
25947;BME280;13745;51.470;9.894;2023-02-13T02:47:23;101439.47;;;8.21;86.65
25947;BME280;13745;51.470;9.894;2023-02-13T02:50:33;101443.78;;;8.22;86.48
25947;BME280;13745;51.470;9.894;2023-02-13T02:53:28;101438.59;;;8.21;86.40
25947;BME280;13745;51.470;9.894;2023-02-13T02:56:19;101446.25;;;8.19;86.74
25947;BME280;13745;51.470;9.894;2023-02-13T02:59:09;101444.63;;;8.21;86.36
25947;BME280;13745;51.470;9.894;2023-02-13T03:02:17;101441.06;;;8.17;86.36
25947;BME280;13745;51.470;9.894;2023-02-13T03:05:29;101441.00;;;8.16;86.62
25947;BME280;13745;51.470;9.894;2023-02-13T03:08:34;101443.63;;;8.17;86.36
25947;BME280;13745;51.470;9.894;2023-02-13T03:11:37;101442.75;;;8.17;86.60
25947;BME280;13745;51.470;9.894;2023-02-13T03:14:41;101439.28;;;8.15;86.60
25947;BME280;13745;51.470;9.894;2023-02-13T03:17:27;101444.34;;;8.12;86.31
25947;BME280;13745;51.470;9.894;2023-02-13T03:20:39;101440.75;;;8.07;86.04
25947;BME280;13745;51.470;9.894;2023-02-13T03:23:50;101443.41;;;8.10;85.99
25947;BME280;13745;51.470;9.894;2023-02-13T03:26:46;101444.34;;;8.12;86.37
25947;BME280;13745;51.470;9.894;2023-02-13T03:29:42;101441.88;;;8.16;86.28
25947;BME280;13745;51.470;9.894;2023-02-13T03:32:52;101438.47;;;8.17;85.65
25947;BME280;13745;51.470;9.894;2023-02-13T03:35:48;101447.16;;;8.20;85.93
25947;BME280;13745;51.470;9.894;2023-02-13T03:38:54;101436.69;;;8.15;85.66
25947;BME280;13745;51.470;9.894;2023-02-13T03:41:46;101443.59;;;8.16;85.76
25947;BME280;13745;51.470;9.894;2023-02-13T03:44:35;101437.47;;;8.12;85.96
25947;BME280;13745;51.470;9.894;2023-02-13T03:47:22;101437.38;;;8.09;85.95
25947;BME280;13745;51.470;9.894;2023-02-13T03:50:08;101438.97;;;8.04;86.29
25947;BME280;13745;51.470;9.894;2023-02-13T03:52:59;101441.44;;;8.01;86.07
25947;BME280;13745;51.470;9.894;2023-02-13T03:55:46;101439.72;;;8.02;85.94
25947;BME280;13745;51.470;9.894;2023-02-13T03:58:52;101443.06;;;7.98;85.79
25947;BME280;13745;51.470;9.894;2023-02-13T04:02:00;101438.72;;;7.97;86.26
25947;BME280;13745;51.470;9.894;2023-02-13T04:04:50;101445.47;;;7.93;85.96
25947;BME280;13745;51.470;9.894;2023-02-13T04:07:38;101440.91;;;7.84;86.08
25947;BME280;13745;51.470;9.894;2023-02-13T04:10:26;101436.38;;;7.77;85.78
25947;BME280;13745;51.470;9.894;2023-02-13T04:13:19;101454.31;;;7.73;86.03
25947;BME280;13745;51.470;9.894;2023-02-13T04:16:09;101455.81;;;7.66;86.19
25947;BME280;13745;51.470;9.894;2023-02-13T04:18:56;101447.25;;;7.67;85.84
25947;BME280;13745;51.470;9.894;2023-02-13T04:21:42;101454.00;;;7.62;85.78
25947;BME280;13745;51.470;9.894;2023-02-13T04:24:27;101459.16;;;7.62;85.82
25947;BME280;13745;51.470;9.894;2023-02-13T04:27:15;101455.44;;;7.54;85.88
25947;BME280;13745;51.470;9.894;2023-02-13T04:30:01;101454.66;;;7.56;85.83
25947;BME280;13745;51.470;9.894;2023-02-13T04:32:46;101460.53;;;7.52;85.94
25947;BME280;13745;51.470;9.894;2023-02-13T04:35:31;101461.19;;;7.45;85.60
25947;BME280;13745;51.470;9.894;2023-02-13T04:38:16;101449.91;;;7.43;85.88
25947;BME280;13745;51.470;9.894;2023-02-13T04:41:01;101449.19;;;7.47;85.74
25947;BME280;13745;51.470;9.894;2023-02-13T04:43:48;101452.66;;;7.48;85.26
25947;BME280;13745;51.470;9.894;2023-02-13T04:46:35;101453.53;;;7.48;85.32
25947;BME280;13745;51.470;9.894;2023-02-13T04:49:20;101454.44;;;7.50;85.80
25947;BME280;13745;51.470;9.894;2023-02-13T04:52:05;101454.44;;;7.50;85.35
25947;BME280;13745;51.470;9.894;2023-02-13T04:54:50;101448.19;;;7.44;85.20
25947;BME280;13745;51.470;9.894;2023-02-13T04:57:35;101450.66;;;7.39;84.96
25947;BME280;13745;51.470;9.894;2023-02-13T05:00:22;101453.91;;;7.33;85.60
25947;BME280;13745;51.470;9.894;2023-02-13T05:03:10;101440.84;;;7.29;84.97
25947;BME280;13745;51.470;9.894;2023-02-13T05:05:55;101445.94;;;7.27;85.09
25947;BME280;13745;51.470;9.894;2023-02-13T05:08:40;101447.59;;;7.25;85.69
25947;BME280;13745;51.470;9.894;2023-02-13T05:11:25;101449.22;;;7.22;85.13
25947;BME280;13745;51.470;9.894;2023-02-13T05:14:10;101445.59;;;7.17;85.15
25947;BME280;13745;51.470;9.894;2023-02-13T05:16:57;101444.50;;;7.10;85.00
25947;BME280;13745;51.470;9.894;2023-02-13T05:19:42;101453.97;;;7.11;85.23
25947;BME280;13745;51.470;9.894;2023-02-13T05:22:27;101454.50;;;7.01;85.24
25947;BME280;13745;51.470;9.894;2023-02-13T05:25:30;101451.66;;;6.93;85.88
25947;BME280;13745;51.470;9.894;2023-02-13T05:28:15;101450.78;;;6.93;85.73
25947;BME280;13745;51.470;9.894;2023-02-13T05:31:18;101448.94;;;6.89;85.52
25947;BME280;13745;51.470;9.894;2023-02-13T05:34:04;101444.69;;;6.91;85.29
25947;BME280;13745;51.470;9.894;2023-02-13T05:36:50;101449.84;;;6.91;85.92
25947;BME280;13745;51.470;9.894;2023-02-13T05:39:36;101447.22;;;6.89;85.00
25947;BME280;13745;51.470;9.894;2023-02-13T05:42:21;101455.84;;;6.90;85.37
25947;BME280;13745;51.470;9.894;2023-02-13T05:45:06;101453.25;;;6.90;85.42
25947;BME280;13745;51.470;9.894;2023-02-13T05:47:51;101448.97;;;6.90;85.24
25947;BME280;13745;51.470;9.894;2023-02-13T05:50:38;101452.44;;;6.91;84.89
25947;BME280;13745;51.470;9.894;2023-02-13T05:53:23;101450.91;;;6.96;84.79
25947;BME280;13745;51.470;9.894;2023-02-13T05:56:08;101453.41;;;6.94;85.18
25947;BME280;13745;51.470;9.894;2023-02-13T05:58:54;101443.81;;;6.90;84.79
25947;BME280;13745;51.470;9.894;2023-02-13T06:01:39;101446.53;;;6.95;85.33
25947;BME280;13745;51.470;9.894;2023-02-13T06:04:25;101445.66;;;6.94;85.11
25947;BME280;13745;51.470;9.894;2023-02-13T06:07:11;101449.13;;;6.95;85.40
25947;BME280;13745;51.470;9.894;2023-02-13T06:09:57;101453.53;;;6.97;84.80
25947;BME280;13745;51.470;9.894;2023-02-13T06:12:42;101451.91;;;7.01;85.35
25947;BME280;13745;51.470;9.894;2023-02-13T06:15:27;101455.41;;;7.03;84.59
25947;BME280;13745;51.470;9.894;2023-02-13T06:18:12;101453.63;;;7.00;84.87
25947;BME280;13745;51.470;9.894;2023-02-13T06:20:57;101456.19;;;7.00;84.54
25947;BME280;13745;51.470;9.894;2023-02-13T06:23:44;101456.19;;;7.00;84.65
25947;BME280;13745;51.470;9.894;2023-02-13T06:26:29;101464.06;;;7.03;85.24
25947;BME280;13745;51.470;9.894;2023-02-13T06:29:14;101469.25;;;7.05;85.02
25947;BME280;13745;51.470;9.894;2023-02-13T06:31:59;101466.63;;;7.03;84.40
25947;BME280;13745;51.470;9.894;2023-02-13T06:34:44;101468.44;;;7.06;84.56
25947;BME280;13745;51.470;9.894;2023-02-13T06:37:29;101473.69;;;7.09;84.43
25947;BME280;13745;51.470;9.894;2023-02-13T06:40:16;101475.44;;;7.10;84.82
25947;BME280;13745;51.470;9.894;2023-02-13T06:43:01;101479.84;;;7.13;84.69
25947;BME280;13745;51.470;9.894;2023-02-13T06:45:46;101480.72;;;7.13;84.89
25947;BME280;13745;51.470;9.894;2023-02-13T06:48:32;101478.25;;;7.16;84.99
25947;BME280;13745;51.470;9.894;2023-02-13T06:51:17;101479.13;;;7.17;84.82
25947;BME280;13745;51.470;9.894;2023-02-13T06:54:01;101489.38;;;7.15;84.32
25947;BME280;13745;51.470;9.894;2023-02-13T06:56:48;101487.91;;;7.22;84.81
25947;BME280;13745;51.470;9.894;2023-02-13T06:59:33;101491.63;;;7.30;84.42
25947;BME280;13745;51.470;9.894;2023-02-13T07:02:18;101502.06;;;7.35;84.28
25947;BME280;13745;51.470;9.894;2023-02-13T07:05:03;101491.75;;;7.35;83.97
25947;BME280;13745;51.470;9.894;2023-02-13T07:07:48;101491.72;;;7.33;84.50
25947;BME280;13745;51.470;9.894;2023-02-13T07:10:36;101506.31;;;7.32;84.65
25947;BME280;13745;51.470;9.894;2023-02-13T07:13:22;101503.72;;;7.32;84.07
25947;BME280;13745;51.470;9.894;2023-02-13T07:16:07;101499.53;;;7.36;84.03
25947;BME280;13745;51.470;9.894;2023-02-13T07:18:52;101511.72;;;7.40;83.89
25947;BME280;13745;51.470;9.894;2023-02-13T07:21:37;101505.78;;;7.43;84.51
25947;BME280;13745;51.470;9.894;2023-02-13T07:24:23;101511.94;;;7.46;84.14
25947;BME280;13745;51.470;9.894;2023-02-13T07:27:08;101499.88;;;7.45;84.29
25947;BME280;13745;51.470;9.894;2023-02-13T07:29:55;101506.78;;;7.46;83.85
25947;BME280;13745;51.470;9.894;2023-02-13T07:32:40;101509.50;;;7.51;84.17
25947;BME280;13745;51.470;9.894;2023-02-13T07:35:25;101503.47;;;7.50;84.19
25947;BME280;13745;51.470;9.894;2023-02-13T07:38:11;101498.25;;;7.49;84.26
25947;BME280;13745;51.470;9.894;2023-02-13T07:40:57;101511.16;;;7.49;84.18
25947;BME280;13745;51.470;9.894;2023-02-13T07:43:42;101507.81;;;7.51;83.81
25947;BME280;13745;51.470;9.894;2023-02-13T07:46:29;101501.81;;;7.52;84.39
25947;BME280;13745;51.470;9.894;2023-02-13T07:49:14;101513.19;;;7.57;84.24
25947;BME280;13745;51.470;9.894;2023-02-13T07:51:59;101496.03;;;7.59;84.18
25947;BME280;13745;51.470;9.894;2023-02-13T07:54:44;101500.31;;;7.59;84.05
25947;BME280;13745;51.470;9.894;2023-02-13T07:57:31;101503.72;;;7.58;84.15
25947;BME280;13745;51.470;9.894;2023-02-13T08:00:17;101500.09;;;7.53;83.97
25947;BME280;13745;51.470;9.894;2023-02-13T08:03:03;101495.03;;;7.54;84.25
25947;BME280;13745;51.470;9.894;2023-02-13T08:05:49;101499.56;;;7.62;83.90
25947;BME280;13745;51.470;9.894;2023-02-13T08:08:34;101502.19;;;7.63;84.09
25947;BME280;13745;51.470;9.894;2023-02-13T08:11:23;101498.81;;;7.66;84.49
25947;BME280;13745;51.470;9.894;2023-02-13T08:14:28;101499.91;;;7.72;83.78
25947;BME280;13745;51.470;9.894;2023-02-13T08:17:13;101500.88;;;7.76;83.65
25947;BME280;13745;51.470;9.894;2023-02-13T08:19:59;101499.94;;;7.74;83.94
25947;BME280;13745;51.470;9.894;2023-02-13T08:22:44;101500.13;;;7.78;83.89
25947;BME280;13745;51.470;9.894;2023-02-13T08:25:29;101500.19;;;7.81;84.23
25947;BME280;13745;51.470;9.894;2023-02-13T08:28:14;101503.66;;;7.82;83.59
25947;BME280;13745;51.470;9.894;2023-02-13T08:31:00;101496.78;;;7.82;84.11
25947;BME280;13745;51.470;9.894;2023-02-13T08:33:44;101497.66;;;7.83;83.33
25947;BME280;13745;51.470;9.894;2023-02-13T08:36:31;101504.63;;;7.85;83.83
25947;BME280;13745;51.470;9.894;2023-02-13T08:39:16;101505.44;;;7.84;83.79
25947;BME280;13745;51.470;9.894;2023-02-13T08:42:02;101503.84;;;7.88;83.53
25947;BME280;13745;51.470;9.894;2023-02-13T08:44:47;101506.56;;;7.93;83.29
25947;BME280;13745;51.470;9.894;2023-02-13T08:47:32;101507.59;;;7.98;83.42
25947;BME280;13745;51.470;9.894;2023-02-13T08:50:17;101515.19;;;7.93;83.60
25947;BME280;13745;51.470;9.894;2023-02-13T08:53:04;101508.16;;;7.87;83.31
25947;BME280;13745;51.470;9.894;2023-02-13T08:55:52;101504.72;;;7.88;83.80
25947;BME280;13745;51.470;9.894;2023-02-13T08:58:37;101497.19;;;7.95;83.97
25947;BME280;13745;51.470;9.894;2023-02-13T09:01:22;101509.28;;;7.96;83.04
25947;BME280;13745;51.470;9.894;2023-02-13T09:04:08;101511.94;;;7.99;83.63
25947;BME280;13745;51.470;9.894;2023-02-13T09:06:52;101505.97;;;8.01;83.61
25947;BME280;13745;51.470;9.894;2023-02-13T09:09:39;101502.66;;;8.04;83.07
25947;BME280;13745;51.470;9.894;2023-02-13T09:12:24;101503.56;;;8.06;83.57
25947;BME280;13745;51.470;9.894;2023-02-13T09:15:09;101511.38;;;8.09;83.31
25947;BME280;13745;51.470;9.894;2023-02-13T09:17:54;101506.44;;;8.15;83.52
25947;BME280;13745;51.470;9.894;2023-02-13T09:20:39;101507.50;;;8.22;83.63
25947;BME280;13745;51.470;9.894;2023-02-13T09:23:25;101501.56;;;8.26;83.29
25947;BME280;13745;51.470;9.894;2023-02-13T09:26:13;101494.03;;;8.32;82.64
25947;BME280;13745;51.470;9.894;2023-02-13T09:28:58;101498.41;;;8.34;83.12
25947;BME280;13745;51.470;9.894;2023-02-13T09:31:43;101504.66;;;8.41;83.22
25947;BME280;13745;51.470;9.894;2023-02-13T09:34:28;101494.38;;;8.42;83.06
25947;BME280;13745;51.470;9.894;2023-02-13T09:37:13;101497.09;;;8.47;82.80
25947;BME280;13745;51.470;9.894;2023-02-13T09:39:58;101498.88;;;8.50;82.96
25947;BME280;13745;51.470;9.894;2023-02-13T09:42:45;101505.91;;;8.54;82.75
25947;BME280;13745;51.470;9.894;2023-02-13T09:45:32;101505.25;;;8.61;82.98
25947;BME280;13745;51.470;9.894;2023-02-13T09:48:23;101512.25;;;8.65;82.26
25947;BME280;13745;51.470;9.894;2023-02-13T09:51:12;101500.63;;;8.51;82.68
25947;BME280;13745;51.470;9.894;2023-02-13T09:54:01;101510.47;;;8.62;82.56
25947;BME280;13745;51.470;9.894;2023-02-13T09:56:50;101510.59;;;8.67;82.37
25947;BME280;13745;51.470;9.894;2023-02-13T09:59:46;101512.41;;;8.69;82.15
25947;BME280;13745;51.470;9.894;2023-02-13T10:02:42;101506.56;;;8.77;82.36
25947;BME280;13745;51.470;9.894;2023-02-13T10:05:43;101507.72;;;8.86;82.10
25947;BME280;13745;51.470;9.894;2023-02-13T10:08:40;101509.81;;;9.01;81.67
25947;BME280;13745;51.470;9.894;2023-02-13T10:11:47;101501.59;;;9.16;81.36
25947;BME280;13745;51.470;9.894;2023-02-13T10:14:44;101502.03;;;9.31;81.58
25947;BME280;13745;51.470;9.894;2023-02-13T10:17:34;101499.91;;;9.49;81.20
25947;BME280;13745;51.470;9.894;2023-02-13T10:20:26;101512.50;;;9.69;80.62
25947;BME280;13745;51.470;9.894;2023-02-13T10:23:18;101498.28;;;10.25;79.31
25947;BME280;13745;51.470;9.894;2023-02-13T10:26:06;101497.53;;;10.70;78.97
25947;BME280;13745;51.470;9.894;2023-02-13T10:28:59;101487.50;;;10.88;78.50
25947;BME280;13745;51.470;9.894;2023-02-13T10:32:08;101487.78;;;11.02;78.30
25947;BME280;13745;51.470;9.894;2023-02-13T10:34:57;101492.56;;;11.26;77.64
25947;BME280;13745;51.470;9.894;2023-02-13T10:37:45;101482.81;;;12.85;74.85
25947;BME280;13745;51.470;9.894;2023-02-13T10:40:38;101488.19;;;12.99;73.48
25947;BME280;13745;51.470;9.894;2023-02-13T10:43:27;101483.75;;;12.92;73.33
25947;BME280;13745;51.470;9.894;2023-02-13T10:46:21;101479.47;;;12.99;73.37
25947;BME280;13745;51.470;9.894;2023-02-13T10:49:24;101485.66;;;13.08;72.81
25947;BME280;13745;51.470;9.894;2023-02-13T10:52:16;101478.69;;;13.06;74.98
25947;BME280;13745;51.470;9.894;2023-02-13T10:55:22;101481.53;;;13.24;73.45
25947;BME280;13745;51.470;9.894;2023-02-13T10:58:11;101470.50;;;13.56;72.65
25947;BME280;13745;51.470;9.894;2023-02-13T11:01:01;101463.72;;;13.77;72.08
25947;BME280;13745;51.470;9.894;2023-02-13T11:03:48;101463.94;;;14.08;71.37
25947;BME280;13745;51.470;9.894;2023-02-13T11:06:34;101452.22;;;15.31;68.96
25947;BME280;13745;51.470;9.894;2023-02-13T11:09:20;101436.97;;;18.05;63.81
25947;BME280;13745;51.470;9.894;2023-02-13T11:12:22;101434.19;;;20.81;58.97
25947;BME280;13745;51.470;9.894;2023-02-13T11:15:18;101427.19;;;24.83;52.30
25947;BME280;13745;51.470;9.894;2023-02-13T11:18:12;101417.19;;;26.73;50.21
25947;BME280;13745;51.470;9.894;2023-02-13T11:21:03;101417.88;;;28.98;46.63
25947;BME280;13745;51.470;9.894;2023-02-13T11:23:52;101420.63;;;29.27;45.73
25947;BME280;13745;51.470;9.894;2023-02-13T11:26:39;101414.00;;;30.23;44.09
25947;BME280;13745;51.470;9.894;2023-02-13T11:29:25;101403.66;;;30.86;41.99
25947;BME280;13745;51.470;9.894;2023-02-13T11:32:18;101413.78;;;32.00;41.69
25947;BME280;13745;51.470;9.894;2023-02-13T11:35:25;101410.22;;;34.60;38.16
25947;BME280;13745;51.470;9.894;2023-02-13T11:38:18;101416.50;;;36.89;35.68
25947;BME280;13745;51.470;9.894;2023-02-13T11:41:07;101404.28;;;36.84;35.75
25947;BME280;13745;51.470;9.894;2023-02-13T11:43:55;101392.75;;;37.97;33.85
25947;BME280;13745;51.470;9.894;2023-02-13T11:46:46;101401.91;;;36.41;35.00
25947;BME280;13745;51.470;9.894;2023-02-13T11:49:33;101399.22;;;36.61;33.97
25947;BME280;13745;51.470;9.894;2023-02-13T11:52:23;101395.34;;;37.89;33.00
25947;BME280;13745;51.470;9.894;2023-02-13T11:55:27;101400.13;;;38.42;33.41
25947;BME280;13745;51.470;9.894;2023-02-13T11:58:23;101400.09;;;39.05;32.11
25947;BME280;13745;51.470;9.894;2023-02-13T12:01:26;101397.19;;;40.62;31.79
25947;BME280;13745;51.470;9.894;2023-02-13T12:04:14;101387.03;;;41.54;29.89
25947;BME280;13745;51.470;9.894;2023-02-13T12:07:01;101382.66;;;42.08;28.64
25947;BME280;13745;51.470;9.894;2023-02-13T12:09:51;101388.06;;;42.25;28.50
25947;BME280;13745;51.470;9.894;2023-02-13T12:12:41;101378.59;;;42.13;28.79
25947;BME280;13745;51.470;9.894;2023-02-13T12:15:32;101368.66;;;42.12;28.54
25947;BME280;13745;51.470;9.894;2023-02-13T12:18:23;101370.53;;;42.19;28.56
25947;BME280;13745;51.470;9.894;2023-02-13T12:21:19;101366.63;;;42.22;28.22
25947;BME280;13745;51.470;9.894;2023-02-13T12:24:16;101364.41;;;42.48;27.79
25947;BME280;13745;51.470;9.894;2023-02-13T12:27:11;101358.19;;;43.08;27.63
25947;BME280;13745;51.470;9.894;2023-02-13T12:30:31;101350.94;;;43.38;27.68
25947;BME280;13745;51.470;9.894;2023-02-13T12:33:31;101343.94;;;43.51;27.63
25947;BME280;13745;51.470;9.894;2023-02-13T12:36:23;101344.94;;;43.87;25.93
25947;BME280;13745;51.470;9.894;2023-02-13T12:39:17;101340.44;;;44.01;26.46
25947;BME280;13745;51.470;9.894;2023-02-13T12:42:15;101336.13;;;44.43;26.26
25947;BME280;13745;51.470;9.894;2023-02-13T12:45:14;101336.06;;;44.94;25.75
25947;BME280;13745;51.470;9.894;2023-02-13T12:48:11;101326.00;;;45.63;25.25
25947;BME280;13745;51.470;9.894;2023-02-13T12:51:16;101324.19;;;46.18;24.94
25947;BME280;13745;51.470;9.894;2023-02-13T12:54:30;101325.94;;;46.46;24.88
25947;BME280;13745;51.470;9.894;2023-02-13T12:57:41;101323.00;;;46.74;24.38
25947;BME280;13745;51.470;9.894;2023-02-13T13:00:42;101313.31;;;46.98;24.00
25947;BME280;13745;51.470;9.894;2023-02-13T13:03:41;101315.19;;;47.17;23.57
25947;BME280;13745;51.470;9.894;2023-02-13T13:06:45;101308.00;;;47.16;23.80
25947;BME280;13745;51.470;9.894;2023-02-13T13:09:51;101305.06;;;46.98;24.05
25947;BME280;13745;51.470;9.894;2023-02-13T13:12:42;101308.84;;;46.57;23.71
25947;BME280;13745;51.470;9.894;2023-02-13T13:15:31;101301.75;;;45.60;23.65
25947;BME280;13745;51.470;9.894;2023-02-13T13:18:24;101307.69;;;44.59;24.32
25947;BME280;13745;51.470;9.894;2023-02-13T13:21:16;101306.44;;;43.74;25.32
25947;BME280;13745;51.470;9.894;2023-02-13T13:24:04;101306.75;;;42.97;25.22
25947;BME280;13745;51.470;9.894;2023-02-13T13:26:53;101304.97;;;42.35;25.90
25947;BME280;13745;51.470;9.894;2023-02-13T13:29:41;101299.09;;;41.85;25.60
25947;BME280;13745;51.470;9.894;2023-02-13T13:32:28;101305.03;;;41.33;25.42
25947;BME280;13745;51.470;9.894;2023-02-13T13:35:15;101298.78;;;40.91;25.68
25947;BME280;13745;51.470;9.894;2023-02-13T13:38:01;101298.34;;;40.37;26.07
25947;BME280;13745;51.470;9.894;2023-02-13T13:40:49;101293.25;;;39.84;26.79
25947;BME280;13745;51.470;9.894;2023-02-13T13:43:39;101293.44;;;39.30;26.55
25947;BME280;13745;51.470;9.894;2023-02-13T13:46:28;101283.78;;;38.48;27.00
25947;BME280;13745;51.470;9.894;2023-02-13T13:49:17;101293.47;;;37.78;27.87
25947;BME280;13745;51.470;9.894;2023-02-13T13:55:13;101286.28;;;35.74;29.31
25947;BME280;13745;51.470;9.894;2023-02-13T13:58:20;101288.50;;;34.76;29.99
25947;BME280;13745;51.470;9.894;2023-02-13T14:01:17;101284.41;;;33.72;30.70
25947;BME280;13745;51.470;9.894;2023-02-13T14:04:02;101288.31;;;32.76;30.63
25947;BME280;13745;51.470;9.894;2023-02-13T14:09:51;101280.59;;;31.36;32.02
25947;BME280;13745;51.470;9.894;2023-02-13T14:12:43;101277.31;;;30.80;32.57
25947;BME280;13745;51.470;9.894;2023-02-13T14:15:49;101280.19;;;30.23;32.80
25947;BME280;13745;51.470;9.894;2023-02-13T14:18:34;101274.34;;;29.30;33.54
25947;BME280;13745;51.470;9.894;2023-02-13T14:21:21;101280.59;;;28.55;34.08
25947;BME280;13745;51.470;9.894;2023-02-13T14:24:07;101286.06;;;28.05;34.68
25947;BME280;13745;51.470;9.894;2023-02-13T14:26:55;101285.63;;;27.30;35.40
25947;BME280;13745;51.470;9.894;2023-02-13T14:29:46;101275.47;;;26.50;36.12
25947;BME280;13745;51.470;9.894;2023-02-13T14:32:33;101274.84;;;25.89;37.11
25947;BME280;13745;51.470;9.894;2023-02-13T14:35:22;101271.81;;;25.18;37.43
25947;BME280;13745;51.470;9.894;2023-02-13T14:38:21;101269.69;;;24.42;38.51
25947;BME280;13745;51.470;9.894;2023-02-13T14:41:42;101264.78;;;23.62;38.91
25947;BME280;13745;51.470;9.894;2023-02-13T14:44:31;101265.53;;;23.16;39.76
25947;BME280;13745;51.470;9.894;2023-02-13T14:47:21;101264.25;;;22.76;40.76
25947;BME280;13745;51.470;9.894;2023-02-13T14:50:17;101264.84;;;22.30;41.54
25947;BME280;13745;51.470;9.894;2023-02-13T14:53:08;101269.59;;;21.89;41.98
25947;BME280;13745;51.470;9.894;2023-02-13T14:56:04;101262.91;;;21.46;42.29
25947;BME280;13745;51.470;9.894;2023-02-13T14:58:53;101269.16;;;21.08;43.03
25947;BME280;13745;51.470;9.894;2023-02-13T15:01:46;101264.94;;;20.67;43.89
25947;BME280;13745;51.470;9.894;2023-02-13T15:04:36;101271.94;;;20.31;44.21
25947;BME280;13745;51.470;9.894;2023-02-13T15:07:26;101272.66;;;19.99;44.90